| time (UTC) | temp F | wind direction | speed knots | gust knots | rain 1hr in | rain 24hr in | rain mn in | humidity % | barometer mb |
| 20260510190019 | 74 | 18 | 6.1 | 10.4 | 0.00 | 0.00 | 0.00 | 72 | 1016.3 |
| 20260510184506 | 74 | 74 | 5.2 | 10.4 | 0.00 | 0.00 | 0.00 | 73 | 1016.2 |
| 20260510183011 | 74 | 68 | 4.3 | 11.3 | 0.00 | 0.00 | 0.00 | 75 | 1016.3 |
| 20260510181514 | 74 | 44 | 5.2 | 8.7 | 0.00 | 0.00 | 0.00 | 74 | 1016.4 |
| 20260510180002 | 75 | 44 | 6.1 | 12.2 | 0.00 | 0.00 | 0.00 | 74 | 1016.0 |
| 20260510174501 | 75 | 88 | 3.5 | 9.6 | 0.00 | 0.00 | 0.00 | 72 | 1015.9 |
| 20260510173107 | 75 | 57 | 5.2 | 11.3 | 0.00 | 0.00 | 0.00 | 71 | 1015.7 |
| 20260510171601 | 75 | 15 | 4.3 | 7.8 | 0.00 | 0.00 | 0.00 | 73 | 1015.7 |
| 20260510170106 | 74 | 26 | 2.6 | 6.1 | 0.00 | 0.00 | 0.00 | 77 | 1015.8 |
| 20260510164554 | 73 | 77 | 3.5 | 7.8 | 0.00 | 0.00 | 0.00 | 77 | 1015.8 |
| 20260510163051 | 73 | 30 | 1.7 | 9.6 | 0.00 | 0.00 | 0.00 | 76 | 1015.7 |
| 20260510161549 | 72 | 57 | 4.3 | 8.7 | 0.00 | 0.00 | 0.00 | 77 | 1015.9 |
| 20260510160049 | 72 | 22 | 4.3 | 8.7 | 0.00 | 0.00 | 0.00 | 75 | 1015.9 |
| 20260510154545 | 70 | 38 | 4.3 | 8.7 | 0.00 | 0.00 | 0.00 | 75 | 1016.1 |
| 20260510153043 | 69 | 17 | 3.5 | 7.0 | 0.00 | 0.00 | 0.00 | 77 | 1016.1 |
| 20260510151544 | 70 | 312 | 2.6 | 7.0 | 0.00 | 0.00 | 0.00 | 74 | 1015.8 |
| 20260510150039 | 70 | 324 | 1.7 | 4.3 | 0.00 | 0.00 | 0.00 | 76 | 1015.5 |
| 20260510144534 | 69 | 309 | 0.9 | 4.3 | 0.00 | 0.00 | 0.00 | 84 | 1015.5 |
| 20260510143035 | 67 | 325 | 0.9 | 2.6 | 0.00 | 0.00 | 0.00 | 87 | 1015.3 |
| 20260510141526 | 64 | 265 | 0.0 | 0.9 | 0.00 | 0.00 | 0.00 | 87 | 1015.2 |
| 20260510140023 | 63 | 265 | 0.0 | 1.7 | 0.00 | 0.00 | 0.00 | 89 | 1015.1 |
| 20260510134519 | 62 | 265 | 0.0 | 0.9 | 0.00 | 0.00 | 0.00 | 91 | 1014.9 |
| 20260510133033 | 60 | 265 | 0.0 | 0.9 | 0.00 | 0.00 | 0.00 | 93 | 1014.7 |
| 20260510131513 | 59 | 265 | 0.0 | 1.7 | 0.00 | 0.00 | 0.00 | 95 | 1014.7 |
| 20260510130009 | 58 | 265 | 0.0 | 0.9 | 0.00 | 0.00 | 0.00 | 95 | 1014.4 |
| 20260510124508 | 57 | 265 | 0.0 | 0.0 | 0.00 | 0.00 | 0.00 | 96 | 1014.3 |
| 20260510123003 | 56 | 265 | 0.0 | 0.0 | 0.00 | 0.00 | 0.00 | 96 | 1014.4 |
| 20260510121501 | 55 | 265 | 0.0 | 1.7 | 0.00 | 0.00 | 0.00 | 95 | 1014.5 |
| 20260510120100 | 55 | 265 | 0.0 | 1.7 | 0.00 | 0.00 | 0.00 | 96 | 1014.4 |
| 20260510114604 | 54 | 173 | 0.0 | 0.9 | 0.00 | 0.00 | 0.00 | 96 | 1014.3 |
| 20260510113100 | 54 | 173 | 0.0 | 0.9 | 0.00 | 0.00 | 0.00 | 96 | 1014.3 |
| 20260510111600 | 53 | 173 | 0.0 | 0.9 | 0.00 | 0.00 | 0.00 | 96 | 1014.0 |
| 20260510110055 | 53 | 173 | 0.0 | 1.7 | 0.00 | 0.00 | 0.00 | 95 | 1014.0 |
| 20260510104556 | 54 | 297 | 0.9 | 5.2 | 0.00 | 0.00 | 0.00 | 96 | 1013.9 |
| 20260510103053 | 53 | 292 | 0.9 | 2.6 | 0.00 | 0.00 | 0.00 | 96 | 1013.6 |
| 20260510101552 | 52 | 189 | 0.0 | 0.0 | 0.00 | 0.00 | 0.00 | 96 | 1013.2 |
| 20260510100048 | 52 | 189 | 0.0 | 0.0 | 0.00 | 0.00 | 0.00 | 96 | 1012.8 |
| 20260510094546 | 52 | 189 | 0.0 | 0.0 | 0.00 | 0.00 | 0.00 | 96 | 1012.8 |
| 20260510093045 | 52 | 189 | 0.0 | 0.0 | 0.00 | 0.00 | 0.00 | 96 | 1013.0 |
| 20260510091644 | 52 | 189 | 0.0 | 0.0 | 0.00 | 0.00 | 0.00 | 95 | 1012.9 |
| 20260510090043 | 52 | 189 | 0.0 | 0.0 | 0.00 | 0.00 | 0.00 | 95 | 1012.9 |
| 20260510084541 | 52 | 163 | 0.0 | 0.0 | 0.00 | 0.00 | 0.00 | 95 | 1012.7 |
| 20260510083039 | 52 | 163 | 0.0 | 0.0 | 0.00 | 0.00 | 0.00 | 94 | 1012.4 |
| 20260510081545 | 52 | 161 | 0.0 | 0.0 | 0.00 | 0.00 | 0.00 | 94 | 1012.3 |
| 20260510080041 | 53 | 160 | 0.0 | 0.0 | 0.00 | 0.00 | 0.00 | 94 | 1012.1 |
| 20260510074535 | 53 | 160 | 0.0 | 0.0 | 0.00 | 0.00 | 0.00 | 94 | 1012.0 |
| 20260510073038 | 53 | 160 | 0.0 | 0.0 | 0.00 | 0.00 | 0.00 | 93 | 1012.1 |
| 20260510071531 | 54 | 160 | 0.0 | 0.0 | 0.00 | 0.00 | 0.00 | 93 | 1012.0 |
| 20260510070031 | 54 | 160 | 0.0 | 0.0 | 0.00 | 0.00 | 0.00 | 93 | 1012.1 |
| 20260510064535 | 54 | 160 | 0.0 | 0.0 | 0.00 | 0.00 | 0.00 | 92 | 1012.3 |
| 20260510063035 | 54 | 160 | 0.0 | 0.0 | 0.00 | 0.00 | 0.00 | 92 | 1012.4 |
| 20260510061526 | 55 | 160 | 0.0 | 0.0 | 0.00 | 0.00 | 0.00 | 91 | 1012.4 |
| 20260510060026 | 55 | 160 | 0.0 | 0.0 | 0.00 | 0.00 | 0.00 | 91 | 1012.4 |
| 20260510054525 | 55 | 160 | 0.0 | 0.0 | 0.00 | 0.00 | 0.00 | 90 | 1012.6 |
| 20260510053024 | 55 | 161 | 0.0 | 0.0 | 0.00 | 0.00 | 0.00 | 89 | 1012.5 |
| 20260510051522 | 55 | 157 | 0.0 | 0.0 | 0.00 | 0.00 | 0.00 | 89 | 1012.3 |
| 20260510050019 | 56 | 157 | 0.0 | 0.0 | 0.00 | 0.00 | 0.00 | 88 | 1012.2 |
| 20260510044617 | 56 | 157 | 0.0 | 0.0 | 0.00 | 0.00 | 0.00 | 87 | 1012.0 |
| 20260510043017 | 57 | 157 | 0.0 | 0.0 | 0.00 | 0.00 | 0.00 | 86 | 1011.8 |
| 20260510041516 | 57 | 157 | 0.0 | 0.0 | 0.00 | 0.00 | 0.00 | 85 | 1011.7 |
| 20260510040016 | 58 | 157 | 0.0 | 0.0 | 0.00 | 0.00 | 0.00 | 84 | 1011.7 |
| 20260510034514 | 58 | 157 | 0.0 | 0.0 | 0.00 | 0.00 | 0.00 | 84 | 1011.7 |
| 20260510033014 | 59 | 157 | 0.0 | 0.0 | 0.00 | 0.00 | 0.00 | 83 | 1011.5 |
| 20260510031517 | 60 | 157 | 0.0 | 0.0 | 0.00 | 0.00 | 0.00 | 82 | 1011.5 |
| 20260510030012 | 60 | 157 | 0.0 | 0.0 | 0.00 | 0.00 | 0.00 | 81 | 1011.3 |
| 20260510024510 | 61 | 157 | 0.0 | 0.0 | 0.00 | 0.00 | 0.00 | 80 | 1011.1 |
| 20260510023006 | 62 | 157 | 0.0 | 0.0 | 0.00 | 0.00 | 0.00 | 77 | 1010.9 |
| 20260510021504 | 64 | 157 | 0.0 | 0.0 | 0.00 | 0.00 | 0.00 | 75 | 1010.7 |
| 20260510020006 | 65 | 157 | 0.0 | 0.0 | 0.00 | 0.00 | 0.00 | 73 | 1010.4 |
| 20260510014505 | 66 | 157 | 0.0 | 0.9 | 0.00 | 0.00 | 0.00 | 69 | 1010.2 |
| 20260510013003 | 68 | 157 | 0.0 | 0.0 | 0.00 | 0.00 | 0.00 | 66 | 1010.1 |
| 20260510011503 | 70 | 157 | 0.0 | 1.7 | 0.00 | 0.00 | 0.00 | 63 | 1010.0 |
| 20260510010003 | 72 | 171 | 0.0 | 0.9 | 0.00 | 0.00 | 0.00 | 59 | 1009.8 |
| 20260510004600 | 74 | 143 | 0.0 | 0.0 | 0.00 | 0.00 | 0.00 | 54 | 1009.7 |
| 20260510003106 | 76 | 143 | 0.0 | 3.5 | 0.00 | 0.00 | 0.00 | 50 | 1009.3 |
| 20260510001559 | 78 | 154 | 0.9 | 3.5 | 0.00 | 0.00 | 0.00 | 46 | 1009.3 |
| 20260510000100 | 80 | 165 | 1.7 | 6.1 | 0.00 | 0.00 | 0.00 | 46 | 1009.1 |
| 20260509234605 | 82 | 156 | 0.0 | 0.9 | 0.00 | 0.00 | 0.00 | 45 | 1009.1 |
| 20260509233058 | 82 | 157 | 0.0 | 1.7 | 0.00 | 0.00 | 0.00 | 41 | 1009.0 |
| 20260509231558 | 83 | 144 | 0.9 | 5.2 | 0.00 | 0.00 | 0.00 | 39 | 1009.2 |
| 20260509230058 | 84 | 170 | 0.0 | 2.6 | 0.00 | 0.00 | 0.00 | 34 | 1009.1 |
| 20260509224601 | 84 | 186 | 0.9 | 4.3 | 0.00 | 0.00 | 0.00 | 35 | 1009.0 |
| 20260509223059 | 83 | 171 | 0.9 | 7.0 | 0.00 | 0.00 | 0.00 | 34 | 1009.0 |
| 20260509221605 | 84 | 279 | 1.7 | 7.0 | 0.00 | 0.00 | 0.00 | 36 | 1008.7 |
| 20260509220053 | 83 | 201 | 0.9 | 5.2 | 0.00 | 0.00 | 0.00 | 36 | 1008.7 |
| 20260509214556 | 82 | 108 | 0.9 | 6.1 | 0.00 | 0.00 | 0.00 | 36 | 1008.7 |
| 20260509213051 | 83 | 154 | 0.9 | 3.5 | 0.00 | 0.00 | 0.00 | 37 | 1008.8 |
| 20260509211555 | 83 | 283 | 0.9 | 6.1 | 0.00 | 0.00 | 0.00 | 36 | 1008.9 |
| 20260509210054 | 83 | 351 | 0.9 | 3.5 | 0.00 | 0.00 | 0.00 | 36 | 1009.0 |
| 20260509204551 | 83 | 293 | 4.3 | 7.0 | 0.00 | 0.00 | 0.00 | 38 | 1009.3 |
| 20260509203047 | 83 | 220 | 0.0 | 4.3 | 0.00 | 0.00 | 0.00 | 35 | 1009.4 |
| 20260509201554 | 82 | 258 | 0.9 | 7.0 | 0.00 | 0.00 | 0.00 | 35 | 1009.5 |
| 20260509200056 | 82 | 114 | 0.0 | 3.5 | 0.00 | 0.00 | 0.00 | 40 | 1009.7 |
| 20260509194541 | 81 | 26 | 1.7 | 5.2 | 0.00 | 0.00 | 0.00 | 39 | 1009.9 |
| 20260509193038 | 81 | 355 | 3.5 | 7.0 | 0.00 | 0.00 | 0.00 | 39 | 1010.0 |
| 20260509191537 | 81 | 293 | 5.2 | 7.8 | 0.00 | 0.00 | 0.00 | 39 | 1009.9 |